• Join FlightAware (Why Join?)
  • Login
  • US Flag 
01:28PM EDT


 

Airport Tracker/Info


-or-


 

Live Flight TrackerFlight Track Log ✈ N654DL ✈ 24-Apr-2013 ✈ KSRQ - KATL

Flight Track Log - Related Links

Times and Time Zones

All times are in EDT time to prevent confusion due to time zone crossing. See the N654DL flight status page for this flight to view local times or setup timezone preferences in your user account.

Time Position Orientation Groundspeed Altitude Reporting Facility
EDT Latitude Longitude Course Direction KTS MPH feet Rate Location/Type
08:25AM 27.3833 -82.5500 360° North 186 214 600  Level Tampa TRACON
08:25AM 27.3667 -82.5167 119° Southeast 171 197 2,100 1,800 Climbing Tampa TRACON
08:26AM 27.3167 -82.4833 149° Southeast 256 295 3,500 2,520 Climbing Tampa TRACON
08:28AM 27.5412 -82.7833 North  Level FlightAware Approximate
08:29AM 27.6464 -82.7833 North  Level FlightAware Approximate
08:29AM 27.2889 -82.5981 255° West 160 184 10,700  Level Miami Center
08:30AM 27.7515 -82.7833 360° North  Level FlightAware Approximate
08:30AM 27.3569 -82.6714 316° Northwest 239 275 12,200  Level Miami Center
08:31AM 27.4328 -82.7547 316° Northwest 311 358 14,800 2,400 Climbing Miami Center
08:33AM 27.6575 -82.7803 354° North 385 443 19,400 2,040 Climbing Jacksonville Center
08:34AM 27.7722 -82.7822 359° North 402 463 20,900 1,800 Climbing Jacksonville Center
08:35AM 27.8933 -82.7892 357° North 422 486 23,000 1,980 Climbing Jacksonville Center
08:36AM 28.0164 -82.7892 360° North 428 493 24,900 1,800 Climbing Jacksonville Center
08:37AM 28.1417 -82.7889 360° North 434 499 26,700 1,620 Climbing Jacksonville Center
08:38AM 28.2708 -82.7867 North 445 512 28,200 1,740 Climbing Jacksonville Center
08:39AM 28.3961 -82.7864 360° North 450 518 30,200 1,860 Climbing Jacksonville Center
08:40AM 28.5131 -82.8194 346° North 444 511 32,000 900 Climbing Jacksonville Center
08:41AM 28.6258 -82.8619 342° North 425 489 32,000  Level Jacksonville Center
08:42AM 28.7425 -82.8878 349° North 420 483 32,000  Level Jacksonville Center
08:43AM 28.8594 -82.9092 351° North 420 483 32,000  Level Jacksonville Center
08:44AM 28.9783 -82.9306 351° North 425 489 32,000  Level Jacksonville Center
08:45AM 29.0892 -82.9758 340° North 425 489 32,000  Level Jacksonville Center
08:46AM 29.1872 -83.0400 330° Northwest 414 476 32,000  Level Jacksonville Center
08:47AM 29.2892 -83.1069 330° Northwest 414 476 32,000  Level Jacksonville Center
08:48AM 29.3914 -83.1714 331° Northwest 414 476 32,000  Level Jacksonville Center
08:49AM 29.5061 -83.2458 331° Northwest 426 490 32,000  Level Jacksonville Center
08:50AM 29.5936 -83.3033 330° Northwest 426 490 32,000  Level Jacksonville Center
08:51AM 29.6978 -83.3708 331° Northwest 426 490 32,000  Level Jacksonville Center
08:52AM 29.8019 -83.4358 332° Northwest 426 490 32,000  Level Jacksonville Center
08:53AM 29.9058 -83.5058 330° Northwest 426 490 32,000  Level Jacksonville Center
08:54AM 30.0203 -83.5786 331° Northwest 426 490 32,000  Level Jacksonville Center
08:55AM 30.1244 -83.6467 331° Northwest 426 490 32,000  Level Jacksonville Center
08:56AM 30.2306 -83.7125 332° Northwest 426 490 32,000  Level Jacksonville Center
08:57AM 30.3344 -83.7806 331° Northwest 426 490 32,000  Level Jacksonville Center
08:58AM 30.4361 -83.8514 329° Northwest 426 490 32,000  Level Jacksonville Center
08:59AM 30.5422 -83.9178 332° Northwest 426 490 32,000  Level Jacksonville Center
09:00AM 30.6314 -83.9789 329° Northwest 426 490 32,000  Level Jacksonville Center
09:01AM 30.7353 -84.0478 330° Northwest 426 490 32,000  Level Jacksonville Center
09:02AM 30.8369 -84.1144 331° Northwest 426 490 32,000  Level Jacksonville Center
09:03AM 30.9386 -84.1836 330° Northwest 426 490 32,000  Level Jacksonville Center
09:04AM 31.0422 -84.2506 331° Northwest 426 490 32,000  Level Jacksonville Center
09:05AM 31.1439 -84.3197 330° Northwest 426 490 32,000  Level Jacksonville Center
09:06AM 31.2453 -84.3869 330° Northwest 421 484 32,000  Level Jacksonville Center
09:07AM 31.3489 -84.4567 330° Northwest 426 490 32,000  Level Jacksonville Center
09:09AM 31.5969 -84.6217 330° Northwest 426 490 32,000  Level Atlanta Center
09:10AM 31.7033 -84.6711 338° Northwest 412 474 32,000  Level Atlanta Center
09:11AM 31.8200 -84.7183 341° North 422 486 32,000  Level Atlanta Center
09:12AM 31.9386 -84.7533 346° North 428 493 32,000  Level Atlanta Center
09:13AM 32.0678 -84.7814 350° North 433 498 32,000  Level Atlanta Center
09:14AM 32.1908 -84.8094 349° North 433 498 32,000  Level Atlanta Center
09:15AM 32.2847 -84.8275 351° North 433 498 32,000 -360 Level Atlanta Center
09:16AM 32.4181 -84.8558 350° North 433 498 31,300 -1,680 Descending Atlanta Center
09:17AM 32.5389 -84.8792 351° North 428 493 28,700 -3,060 Descending Atlanta Center
09:18AM 32.6683 -84.9097 349° North 448 516 25,200 -3,060 Descending Atlanta Center
09:19AM 32.8100 -84.9483 347° North 464 534 22,600 -2,940 Descending Atlanta Center
09:20AM 32.9328 -84.9744 350° North 464 534 19,400 -3,120 Descending Atlanta Center
09:21AM 33.0494 -85.0003 349° North 433 498 16,400 -2,700 Descending Atlanta Center
09:22AM 33.1664 -85.0167 353° North 428 493 14,100 -1,500 Descending Atlanta Center
09:23AM 33.2608 -84.9331 37° Northeast 400 460 13,400 -900 Descending Atlanta Center
09:24AM 33.3389 -84.8244 49° Northeast 400 460 12,400 -780 Descending Atlanta Center
09:25AM 33.4000 -84.7333 51° Northeast 413 475 12,000 -240 Descending Atlanta TRACON
09:26AM 33.4833 -84.6333 45° Northeast 348 400 12,000 -120 Level Atlanta TRACON
09:28AM 33.5500 -84.4667 64° Northeast 274 315 11,700 -780 Descending Atlanta TRACON
09:29AM 33.5500 -84.3833 90° East 258 297 9,800 -1,740 Descending Atlanta TRACON
09:30AM 33.5500 -84.3000 90° East 226 260 8,300 -1,740 Descending Atlanta TRACON
09:31AM 33.5500 -84.2333 90° East 229 264 6,500 -1,680 Descending Atlanta TRACON
09:32AM 33.5500 -84.1667 90° East 224 258 5,200 -1,260 Descending Atlanta TRACON
09:33AM 33.6167 -84.1667 360° North 203 234 4,000 -600 Descending Atlanta TRACON
09:34AM 33.6167 -84.2167 270° West 158 182 4,000 -240 Level Atlanta TRACON
09:35AM 33.6167 -84.2667 270° West 157 181 3,600 -660 Descending Atlanta TRACON
09:36AM 33.6167 -84.3167 270° West 161 185 2,700 -900 Descending Atlanta TRACON